Corky — WDC3366 — position and weather

sailwx.info

Track history (hours):
 
Tides and Currents Weather Stations Pressure Air Temp Water Temp Dewpoint Dewpoint Depression Visibility Wind Speed Wind Dir Waves Ship Positions

Corky

Owner: Gulf South Marine Transportation, Inc., New Orleans, LA. More information available from US FCC via Universal Licensing System and Coast Guard Vessel Documentation Center.

Last reported at 2018-Feb-22 17:38 UTC. Time now 2018-Feb-23 00:52 UTC.
Position N 29°46' W 095°05'.

Length 18 m; draft 3.3 m.

Type: Tow > 200 m length. MMSI: 367006780.

Date/timePositionNaut miles runAvg speedWind from/ knotsBaromVisibWave heightAir tempDewpointWater temp
2018-Feb-22 17:38N 29°46' W 095°05'1 6.2
2018-Feb-22 17:30N 29°45' W 095°04'5 0.5
2018-Feb-22 06:39N 29°45' W 095°10'1 1.8
2018-Feb-22 06:23N 29°45' W 095°10'5 1.2
2018-Feb-22 02:19N 29°45' W 095°04'2 5.1
2018-Feb-22 02:00N 29°44' W 095°03'2 4.0
2018-Feb-22 01:30N 29°43' W 095°01'2 4.0
2018-Feb-22 01:00N 29°42' W 094°60'2 4.8
2018-Feb-22 00:30N 29°40' W 094°58'3 5.1
2018-Feb-22 00:00N 29°37' W 094°57'3 5.2
2018-Feb-21 23:30N 29°35' W 094°56'23 0.9
2018-Feb-20 22:11N 29°31' W 094°30'1 5.1
2018-Feb-20 21:58N 29°32' W 094°29'5 1.3
2018-Feb-20 18:10N 29°35' W 094°25'1 4.5
2018-Feb-20 17:57N 29°36' W 094°25'1 2.9
2018-Feb-20 17:26N 29°36' W 094°23'0 0.0
2018-Feb-20 17:00N 29°36' W 094°23'2 3.8
2018-Feb-20 16:29N 29°37' W 094°21'1 1.5
2018-Feb-20 15:59N 29°37' W 094°20'0 0.0
2018-Feb-20 15:30N 29°37' W 094°20'0 0.1
2018-Feb-20 14:58N 29°37' W 094°20'0 0.0
2018-Feb-20 14:30N 29°37' W 094°20'0 0.0
2018-Feb-20 14:00N 29°37' W 094°20'0 0.0
2018-Feb-20 13:30N 29°37' W 094°20'0 0.0
2018-Feb-20 13:00N 29°37' W 094°20'0 0.0
2018-Feb-20 12:29N 29°37' W 094°20'0 0.0
2018-Feb-20 12:00N 29°37' W 094°20'0 0.0
2018-Feb-20 11:31N 29°37' W 094°20'0 0.0
2018-Feb-20 10:57N 29°37' W 094°20'0 0.0
2018-Feb-20 10:30N 29°37' W 094°20'0 0.0
2018-Feb-20 10:00N 29°37' W 094°20'0 0.0
2018-Feb-20 09:31N 29°37' W 094°20'0 0.0
2018-Feb-20 08:59N 29°37' W 094°20'0 0.0
2018-Feb-20 08:29N 29°37' W 094°20'0 0.0
2018-Feb-20 07:53N 29°37' W 094°20'0 0.0
2018-Feb-20 07:25N 29°37' W 094°20'0 0.0
2018-Feb-20 07:00N 29°37' W 094°20'0 0.0
2018-Feb-20 06:29N 29°37' W 094°20'2 3.1
2018-Feb-20 05:57N 29°38' W 094°18'2 5.6
2018-Feb-20 05:30N 29°39' W 094°16'3 5.6
2018-Feb-20 05:00N 29°40' W 094°13'2 4.5
2018-Feb-20 04:30N 29°41' W 094°11'2 4.1
2018-Feb-20 04:00N 29°42' W 094°09'2 3.9
2018-Feb-20 03:30N 29°43' W 094°07'3 5.6
2018-Feb-20 03:00N 29°45' W 094°04'3 5.8
2018-Feb-20 02:30N 29°47' W 094°02'2 3.1
2018-Feb-20 02:01N 29°48' W 094°00'2 3.5
2018-Feb-20 01:30N 29°49' W 093°59'2 4.1
2018-Feb-20 01:00N 29°51' W 093°57'3 5.7
2018-Feb-20 00:30N 29°53' W 093°55'3 5.9
2018-Feb-20 00:00N 29°55' W 093°53'3 6.2
2018-Feb-19 23:30N 29°58' W 093°51'0 1.0
2018-Feb-19 23:00N 29°58' W 093°51'0 0.4
2018-Feb-19 22:30N 29°58' W 093°51'3 5.0
2018-Feb-19 22:01N 29°59' W 093°48'1 2.0
2018-Feb-19 21:30N 29°60' W 093°47'0 0.0
2018-Feb-19 21:00N 29°60' W 093°47'0 0.0
2018-Feb-19 20:30N 29°60' W 093°47'2 4.4
2018-Feb-19 20:00N 30°01' W 093°45'2 4.8
2018-Feb-19 19:30N 30°03' W 093°43'3 4.6
2018-Feb-19 18:57N 30°04' W 093°41'0 0.7
2018-Feb-19 18:30N 30°04' W 093°40'0 0.7
2018-Feb-19 18:00N 30°04' W 093°40'2 4.4
2018-Feb-19 17:28N 30°04' W 093°37'2 4.1
2018-Feb-19 16:59N 30°04' W 093°35'2 4.7
2018-Feb-19 16:30N 30°04' W 093°32'2 4.7
2018-Feb-19 16:00N 30°04' W 093°30'2 4.7
2018-Feb-19 15:30N 30°04' W 093°27'2 4.8
2018-Feb-19 15:00N 30°04' W 093°24'2 3.3
2018-Feb-19 14:26N 30°04' W 093°22'0 0.1
2018-Feb-19 14:00N 30°04' W 093°22'0 0.0
2018-Feb-19 13:30N 30°04' W 093°22'0 0.1
2018-Feb-19 13:00N 30°04' W 093°22'0 0.0
2018-Feb-19 12:30N 30°04' W 093°22'0 0.0
2018-Feb-19 12:00N 30°04' W 093°22'0 0.0
2018-Feb-19 11:30N 30°04' W 093°22'0 0.0
2018-Feb-19 11:00N 30°04' W 093°22'0 0.0
2018-Feb-19 10:30N 30°04' W 093°22'0 0.1
2018-Feb-19 10:00N 30°04' W 093°22'0 0.1
2018-Feb-19 09:28N 30°04' W 093°22'0 0.1
2018-Feb-19 09:00N 30°04' W 093°22'0 0.0
2018-Feb-19 08:30N 30°04' W 093°22'0 0.0
2018-Feb-19 08:00N 30°04' W 093°22'0 0.0
2018-Feb-19 07:30N 30°04' W 093°22'0 0.0
2018-Feb-19 07:00N 30°04' W 093°22'0 0.0
2018-Feb-19 06:30N 30°04' W 093°22'0 0.0
2018-Feb-19 06:00N 30°04' W 093°22'0 0.0
2018-Feb-19 05:30N 30°04' W 093°22'0 0.0
2018-Feb-19 05:00N 30°04' W 093°22'0 0.0
2018-Feb-19 04:30N 30°04' W 093°22'0 0.0
2018-Feb-19 04:00N 30°04' W 093°22'0 0.0
2018-Feb-19 03:30N 30°04' W 093°22'0 0.0
2018-Feb-19 03:00N 30°04' W 093°22'0 0.0
2018-Feb-19 02:30N 30°04' W 093°22'0 0.0
2018-Feb-19 02:00N 30°04' W 093°22'0 0.0
2018-Feb-19 01:30N 30°04' W 093°22'0 0.0
2018-Feb-19 01:00N 30°04' W 093°22'0 0.0
2018-Feb-19 00:30N 30°04' W 093°22'0 0.5
2018-Feb-19 00:00N 30°04' W 093°22'0 0.6
2018-Feb-18 23:30N 30°04' W 093°22'0 0.0
2018-Feb-18 23:00N 30°04' W 093°22'0 0.0
2018-Feb-18 22:29N 30°04' W 093°22'0 0.3
2018-Feb-18 22:00N 30°04' W 093°22'0 0.0
2018-Feb-18 21:30N 30°04' W 093°22'0 0.1
2018-Feb-18 21:00N 30°04' W 093°22'0 0.3
2018-Feb-18 20:30N 30°04' W 093°22'1 2.9
2018-Feb-18 20:00N 30°05' W 093°20'2 3.4
2018-Feb-18 19:30N 30°06' W 093°19'0 0.2
2018-Feb-18 19:00N 30°06' W 093°19'0 0.2
2018-Feb-18 18:30N 30°06' W 093°19'0 0.4
2018-Feb-18 18:00N 30°06' W 093°19'1 1.5
2018-Feb-18 17:30N 30°06' W 093°18'2 3.7
2018-Feb-18 17:00N 30°04' W 093°17'0 0.1
2018-Feb-18 16:30N 30°04' W 093°16'0 0.0
2018-Feb-18 16:00N 30°04' W 093°16'0 0.1
2018-Feb-18 15:30N 30°04' W 093°16'0 0.1
2018-Feb-18 15:00N 30°04' W 093°16'0 1.0
2018-Feb-18 14:30N 30°04' W 093°16'1 2.5
2018-Feb-18 14:00N 30°03' W 093°16'2 4.5
2018-Feb-18 13:30N 30°01' W 093°14'2 4.7
2018-Feb-18 13:00N 29°59' W 093°13'0 0.6
2018-Feb-18 12:30N 29°59' W 093°12'0 0.0
2018-Feb-18 12:00N 29°59' W 093°12'0 0.2
2018-Feb-18 11:30N 29°59' W 093°12'0 0.0
2018-Feb-18 11:00N 29°59' W 093°12'0 0.0
2018-Feb-18 10:30N 29°59' W 093°12'0 0.0
2018-Feb-18 10:00N 29°59' W 093°12'0 0.0
2018-Feb-18 09:30N 29°59' W 093°12'0 0.0
2018-Feb-18 09:01N 29°59' W 093°12'0 0.0
2018-Feb-18 08:30N 29°59' W 093°12'0 0.1
2018-Feb-18 08:00N 29°59' W 093°12'0 0.1
2018-Feb-18 07:30N 29°59' W 093°12'0 0.0
2018-Feb-18 07:00N 29°59' W 093°12'0 0.0
2018-Feb-18 06:30N 29°59' W 093°12'0 0.0
2018-Feb-18 06:00N 29°59' W 093°12'0 0.6
2018-Feb-18 05:30N 29°59' W 093°12'2 4.9
2018-Feb-18 04:59N 29°57' W 093°10'2 4.6
2018-Feb-18 04:30N 29°56' W 093°08'3 5.1
2018-Feb-18 04:00N 29°56' W 093°05'38 3.9
2018-Feb-17 18:16N 29°51' W 092°22'2 4.0
2018-Feb-17 17:53N 29°51' W 092°20'2 4.1
2018-Feb-17 17:30N 29°50' W 092°18'2 3.9
2018-Feb-17 17:00N 29°49' W 092°17'2 4.2
2018-Feb-17 16:30N 29°48' W 092°15'2 4.0
2018-Feb-17 16:00N 29°47' W 092°12'2 3.3
2018-Feb-17 15:31N 29°47' W 092°11'2 4.3
2018-Feb-17 15:00N 29°47' W 092°08'2 3.9
2018-Feb-17 14:30N 29°48' W 092°06'2 4.1
2018-Feb-17 14:00N 29°48' W 092°04'0 0.1
2018-Feb-17 13:30N 29°48' W 092°04'0 0.0
2018-Feb-17 13:00N 29°48' W 092°04'0 0.0
2018-Feb-17 12:30N 29°48' W 092°04'0 0.0
2018-Feb-17 12:00N 29°48' W 092°04'0 0.0
2018-Feb-17 11:31N 29°48' W 092°04'0 0.0
2018-Feb-17 10:56N 29°48' W 092°04'0 0.0
2018-Feb-17 10:30N 29°48' W 092°04'0 0.0
2018-Feb-17 10:00N 29°48' W 092°04'0 0.0
2018-Feb-17 09:27N 29°48' W 092°04'0 0.0
2018-Feb-17 08:59N 29°48' W 092°04'0 0.0
2018-Feb-17 08:24N 29°48' W 092°04'0 0.0
2018-Feb-17 08:00N 29°48' W 092°04'0 0.0
2018-Feb-17 07:30N 29°48' W 092°04'0 0.0
2018-Feb-17 06:58N 29°48' W 092°04'0 0.0
2018-Feb-17 06:20N 29°48' W 092°04'0 1.3
2018-Feb-17 06:00N 29°49' W 092°03'  
Track history (hours):
 
Tides and Currents Weather Stations Pressure Air Temp Water Temp Dewpoint Dewpoint Depression Visibility Wind Speed Wind Dir Waves Ship Positions

Corky

Owner: Gulf South Marine Transportation, Inc., New Orleans, LA. More information available from US FCC via Universal Licensing System and Coast Guard Vessel Documentation Center.

Last reported at 2018-Feb-22 17:38 UTC. Time now 2018-Feb-23 00:52 UTC.
Position N 29°46' W 095°05'.

Length 18 m; draft 3.3 m.

Type: Tow > 200 m length. MMSI: 367006780.

Date/timePositionNaut miles runAvg speedWind from/ knotsBaromVisibWave heightAir tempDewpointWater temp
2018-Feb-22 17:38N 29°46' W 095°05'1 6.2
2018-Feb-22 17:30N 29°45' W 095°04'5 0.5
2018-Feb-22 06:39N 29°45' W 095°10'1 1.8
2018-Feb-22 06:23N 29°45' W 095°10'5 1.2
2018-Feb-22 02:19N 29°45' W 095°04'2 5.1
2018-Feb-22 02:00N 29°44' W 095°03'2 4.0
2018-Feb-22 01:30N 29°43' W 095°01'2 4.0
2018-Feb-22 01:00N 29°42' W 094°60'2 4.8
2018-Feb-22 00:30N 29°40' W 094°58'3 5.1
2018-Feb-22 00:00N 29°37' W 094°57'3 5.2
2018-Feb-21 23:30N 29°35' W 094°56'23 0.9
2018-Feb-20 22:11N 29°31' W 094°30'1 5.1
2018-Feb-20 21:58N 29°32' W 094°29'5 1.3
2018-Feb-20 18:10N 29°35' W 094°25'1 4.5
2018-Feb-20 17:57N 29°36' W 094°25'1 2.9
2018-Feb-20 17:26N 29°36' W 094°23'0 0.0
2018-Feb-20 17:00N 29°36' W 094°23'2 3.8
2018-Feb-20 16:29N 29°37' W 094°21'1 1.5
2018-Feb-20 15:59N 29°37' W 094°20'0 0.0
2018-Feb-20 15:30N 29°37' W 094°20'0 0.1
2018-Feb-20 14:58N 29°37' W 094°20'0 0.0
2018-Feb-20 14:30N 29°37' W 094°20'0 0.0
2018-Feb-20 14:00N 29°37' W 094°20'0 0.0
2018-Feb-20 13:30N 29°37' W 094°20'0 0.0
2018-Feb-20 13:00N 29°37' W 094°20'0 0.0
2018-Feb-20 12:29N 29°37' W 094°20'0 0.0
2018-Feb-20 12:00N 29°37' W 094°20'0 0.0
2018-Feb-20 11:31N 29°37' W 094°20'0 0.0
2018-Feb-20 10:57N 29°37' W 094°20'0 0.0
2018-Feb-20 10:30N 29°37' W 094°20'0 0.0
2018-Feb-20 10:00N 29°37' W 094°20'0 0.0
2018-Feb-20 09:31N 29°37' W 094°20'0 0.0
2018-Feb-20 08:59N 29°37' W 094°20'0 0.0
2018-Feb-20 08:29N 29°37' W 094°20'0 0.0
2018-Feb-20 07:53N 29°37' W 094°20'0 0.0
2018-Feb-20 07:25N 29°37' W 094°20'0 0.0
2018-Feb-20 07:00N 29°37' W 094°20'0 0.0
2018-Feb-20 06:29N 29°37' W 094°20'2 3.1
2018-Feb-20 05:57N 29°38' W 094°18'2 5.6
2018-Feb-20 05:30N 29°39' W 094°16'3 5.6
2018-Feb-20 05:00N 29°40' W 094°13'2 4.5
2018-Feb-20 04:30N 29°41' W 094°11'2 4.1
2018-Feb-20 04:00N 29°42' W 094°09'2 3.9
2018-Feb-20 03:30N 29°43' W 094°07'3 5.6
2018-Feb-20 03:00N 29°45' W 094°04'3 5.8
2018-Feb-20 02:30N 29°47' W 094°02'2 3.1
2018-Feb-20 02:01N 29°48' W 094°00'2 3.5
2018-Feb-20 01:30N 29°49' W 093°59'2 4.1
2018-Feb-20 01:00N 29°51' W 093°57'3 5.7
2018-Feb-20 00:30N 29°53' W 093°55'3 5.9
2018-Feb-20 00:00N 29°55' W 093°53'3 6.2
2018-Feb-19 23:30N 29°58' W 093°51'0 1.0
2018-Feb-19 23:00N 29°58' W 093°51'0 0.4
2018-Feb-19 22:30N 29°58' W 093°51'3 5.0
2018-Feb-19 22:01N 29°59' W 093°48'1 2.0
2018-Feb-19 21:30N 29°60' W 093°47'0 0.0
2018-Feb-19 21:00N 29°60' W 093°47'0 0.0
2018-Feb-19 20:30N 29°60' W 093°47'2 4.4
2018-Feb-19 20:00N 30°01' W 093°45'2 4.8
2018-Feb-19 19:30N 30°03' W 093°43'3 4.6
2018-Feb-19 18:57N 30°04' W 093°41'0 0.7
2018-Feb-19 18:30N 30°04' W 093°40'0 0.7
2018-Feb-19 18:00N 30°04' W 093°40'2 4.4
2018-Feb-19 17:28N 30°04' W 093°37'2 4.1
2018-Feb-19 16:59N 30°04' W 093°35'2 4.7
2018-Feb-19 16:30N 30°04' W 093°32'2 4.7
2018-Feb-19 16:00N 30°04' W 093°30'2 4.7
2018-Feb-19 15:30N 30°04' W 093°27'2 4.8
2018-Feb-19 15:00N 30°04' W 093°24'2 3.3
2018-Feb-19 14:26N 30°04' W 093°22'0 0.1
2018-Feb-19 14:00N 30°04' W 093°22'0 0.0
2018-Feb-19 13:30N 30°04' W 093°22'0 0.1
2018-Feb-19 13:00N 30°04' W 093°22'0 0.0
2018-Feb-19 12:30N 30°04' W 093°22'0 0.0
2018-Feb-19 12:00N 30°04' W 093°22'0 0.0
2018-Feb-19 11:30N 30°04' W 093°22'0 0.0
2018-Feb-19 11:00N 30°04' W 093°22'0 0.0
2018-Feb-19 10:30N 30°04' W 093°22'0 0.1
2018-Feb-19 10:00N 30°04' W 093°22'0 0.1
2018-Feb-19 09:28N 30°04' W 093°22'0 0.1
2018-Feb-19 09:00N 30°04' W 093°22'0 0.0
2018-Feb-19 08:30N 30°04' W 093°22'0 0.0
2018-Feb-19 08:00N 30°04' W 093°22'0 0.0
2018-Feb-19 07:30N 30°04' W 093°22'0 0.0
2018-Feb-19 07:00N 30°04' W 093°22'0 0.0
2018-Feb-19 06:30N 30°04' W 093°22'0 0.0
2018-Feb-19 06:00N 30°04' W 093°22'0 0.0
2018-Feb-19 05:30N 30°04' W 093°22'0 0.0
2018-Feb-19 05:00N 30°04' W 093°22'0 0.0
2018-Feb-19 04:30N 30°04' W 093°22'0 0.0
2018-Feb-19 04:00N 30°04' W 093°22'0 0.0
2018-Feb-19 03:30N 30°04' W 093°22'0 0.0
2018-Feb-19 03:00N 30°04' W 093°22'0 0.0
2018-Feb-19 02:30N 30°04' W 093°22'0 0.0
2018-Feb-19 02:00N 30°04' W 093°22'0 0.0
2018-Feb-19 01:30N 30°04' W 093°22'0 0.0
2018-Feb-19 01:00N 30°04' W 093°22'0 0.0
2018-Feb-19 00:30N 30°04' W 093°22'0 0.5
2018-Feb-19 00:00N 30°04' W 093°22'0 0.6
2018-Feb-18 23:30N 30°04' W 093°22'0 0.0
2018-Feb-18 23:00N 30°04' W 093°22'0 0.0
2018-Feb-18 22:29N 30°04' W 093°22'0 0.3
2018-Feb-18 22:00N 30°04' W 093°22'0 0.0
2018-Feb-18 21:30N 30°04' W 093°22'0 0.1
2018-Feb-18 21:00N 30°04' W 093°22'0 0.3
2018-Feb-18 20:30N 30°04' W 093°22'1 2.9
2018-Feb-18 20:00N 30°05' W 093°20'2 3.4
2018-Feb-18 19:30N 30°06' W 093°19'0 0.2
2018-Feb-18 19:00N 30°06' W 093°19'0 0.2
2018-Feb-18 18:30N 30°06' W 093°19'0 0.4
2018-Feb-18 18:00N 30°06' W 093°19'1 1.5
2018-Feb-18 17:30N 30°06' W 093°18'2 3.7
2018-Feb-18 17:00N 30°04' W 093°17'0 0.1
2018-Feb-18 16:30N 30°04' W 093°16'0 0.0
2018-Feb-18 16:00N 30°04' W 093°16'0 0.1
2018-Feb-18 15:30N 30°04' W 093°16'0 0.1
2018-Feb-18 15:00N 30°04' W 093°16'0 1.0
2018-Feb-18 14:30N 30°04' W 093°16'1 2.5
2018-Feb-18 14:00N 30°03' W 093°16'2 4.5
2018-Feb-18 13:30N 30°01' W 093°14'2 4.7
2018-Feb-18 13:00N 29°59' W 093°13'0 0.6
2018-Feb-18 12:30N 29°59' W 093°12'0 0.0
2018-Feb-18 12:00N 29°59' W 093°12'0 0.2
2018-Feb-18 11:30N 29°59' W 093°12'0 0.0
2018-Feb-18 11:00N 29°59' W 093°12'0 0.0
2018-Feb-18 10:30N 29°59' W 093°12'0 0.0
2018-Feb-18 10:00N 29°59' W 093°12'0 0.0
2018-Feb-18 09:30N 29°59' W 093°12'0 0.0
2018-Feb-18 09:01N 29°59' W 093°12'0 0.0
2018-Feb-18 08:30N 29°59' W 093°12'0 0.1
2018-Feb-18 08:00N 29°59' W 093°12'0 0.1
2018-Feb-18 07:30N 29°59' W 093°12'0 0.0
2018-Feb-18 07:00N 29°59' W 093°12'0 0.0
2018-Feb-18 06:30N 29°59' W 093°12'0 0.0
2018-Feb-18 06:00N 29°59' W 093°12'0 0.6
2018-Feb-18 05:30N 29°59' W 093°12'2 4.9
2018-Feb-18 04:59N 29°57' W 093°10'2 4.6
2018-Feb-18 04:30N 29°56' W 093°08'3 5.1
2018-Feb-18 04:00N 29°56' W 093°05'38 3.9
2018-Feb-17 18:16N 29°51' W 092°22'2 4.0
2018-Feb-17 17:53N 29°51' W 092°20'2 4.1
2018-Feb-17 17:30N 29°50' W 092°18'2 3.9
2018-Feb-17 17:00N 29°49' W 092°17'2 4.2
2018-Feb-17 16:30N 29°48' W 092°15'2 4.0
2018-Feb-17 16:00N 29°47' W 092°12'2 3.3
2018-Feb-17 15:31N 29°47' W 092°11'2 4.3
2018-Feb-17 15:00N 29°47' W 092°08'2 3.9
2018-Feb-17 14:30N 29°48' W 092°06'2 4.1
2018-Feb-17 14:00N 29°48' W 092°04'0 0.1
2018-Feb-17 13:30N 29°48' W 092°04'0 0.0
2018-Feb-17 13:00N 29°48' W 092°04'0 0.0
2018-Feb-17 12:30N 29°48' W 092°04'0 0.0
2018-Feb-17 12:00N 29°48' W 092°04'0 0.0
2018-Feb-17 11:31N 29°48' W 092°04'0 0.0
2018-Feb-17 10:56N 29°48' W 092°04'0 0.0
2018-Feb-17 10:30N 29°48' W 092°04'0 0.0
2018-Feb-17 10:00N 29°48' W 092°04'0 0.0
2018-Feb-17 09:27N 29°48' W 092°04'0 0.0
2018-Feb-17 08:59N 29°48' W 092°04'0 0.0
2018-Feb-17 08:24N 29°48' W 092°04'0 0.0
2018-Feb-17 08:00N 29°48' W 092°04'0 0.0
2018-Feb-17 07:30N 29°48' W 092°04'0 0.0
2018-Feb-17 06:58N 29°48' W 092°04'0 0.0
2018-Feb-17 06:20N 29°48' W 092°04'0 1.3
2018-Feb-17 06:00N 29°49' W 092°03'  

Dump ship's entire track history